This is the latest recevied weather packets stored in our database for station/object NW6UP. If no packets are shown the sender has not sent any weather packets the latest 10 day(s).
| Time | Temp. | Humidity | Pressure | Rain* | Wind** | Luminosity | Snow |
|---|---|---|---|---|---|---|---|
| 1777578266 | 25° C | 42% | 1013.8 hPa | 0 mm | - | - | - |
| 1777577065 | 25° C | 42% | 1014.1 hPa | 0 mm | - | - | - |
| 1777575867 | 25.56° C | 42% | 0 hPa | 0 mm | - | - | - |
| 1777574666 | 22.78° C | 48% | 1014.4 hPa | 0 mm | - | - | - |
| 1777573467 | 23.89° C | 45% | 1014.5 hPa | 0 mm | - | - | - |
| 1777572266 | 24.44° C | 44% | 0 hPa | 0 mm | - | - | - |
| 1777569869 | 20.56° C | 50% | 1014.7 hPa | 0 mm | - | - | - |
| 1777568906 | 21.11° C | 50% | 1014.6 hPa | 0 mm | - | - | - |
| 1777568425 | 20° C | 52% | 1014.7 hPa | 0 mm | - | - | - |
| 1777568067 | 21.11° C | 50% | 1014.8 hPa | 0 mm | - | - | - |
| 1777568005 | 21.11° C | 50% | 1014.8 hPa | 0 mm | - | - | - |
| 1777558762 | 11.67° C | 86% | 0 hPa | 0 mm | - | - | - |
| 1777557562 | 11.67° C | 87% | 0 hPa | 0 mm | - | - | - |
| 1777556362 | 11.11° C | 91% | 0 hPa | 0 mm | - | - | - |
| 1777555162 | 11.11° C | 92% | 0 hPa | 0 mm | - | - | - |
| 1777553962 | 10.56° C | 91% | 0 hPa | 0 mm | - | - | - |
| 1777552762 | 10° C | 92% | 0 hPa | 0 mm | - | - | - |
| 1777551562 | 10° C | 91% | 1014.8 hPa | 0 mm | - | - | - |
| 1777549163 | 8.89° C | 92% | 1014.8 hPa | 0 mm | - | - | - |
| 1777547962 | 8.89° C | 89% | 0 hPa | 0 mm | - | - | - |
| 1777546762 | 8.89° C | 89% | 0 hPa | 0 mm | - | - | - |
| 1777545564 | 9.44° C | 89% | 1015.1 hPa | 0 mm | - | - | - |
| 1777544362 | 9.44° C | 88% | 1015.3 hPa | 0 mm | - | - | - |
| 1777543165 | 10° C | 89% | 0 hPa | 0 mm | - | - | - |
| 1777541965 | 10° C | 89% | 1015.5 hPa | 0 mm | - | - | - |
* Rain latest hour (hover to see other rain measurements)
** Current wind speed in m/s (hover to see current wind gust speed)